Terminal Aerodrome Forecast
Issued by NWS Huntsville, AL

Home | Current Version | Previous Version | Text Only | Print | Product List | Glossary On
Versions: 1 2 3 4 5 6 7 8 9 10 11 12 13 14 15 16 17 18 19 20 21 22 23 24 25 26 27
000
FTUS44 KHUN 281138 CCA
TAFMSL
TAF COR
KMSL 281138Z 2812/0112 17008KT 6SM -SHRA BR OVC009
     FM281400 19014KT 5SM -SHRA BKN012 OVC020
      TEMPO 2814/2818 VRB15G22KT 2SM TSRA OVC010CB
     FM281900 19013KT P6SM OVC009
     FM010400 20015KT P6SM OVC020
      AMD NOT SKED=

USA.gov is the U.S. government's official web portal to all federal, state and local government web resources and services.